Time;durP1;ratioP1;P1;durP2;ratioP2;P2;SDS_P1;SDS_P2;PMS_P1;PMS_P2;Temp;Humidity;BMP_temperature;BMP_pressure;BME280_temperature;BME280_humidity;BME280_pressure;Samples;Min_cycle;Max_cycle;Signal;HPM_P1;HPM_P2
2022/12/05 00:01:21;;;;;;;56.98;29.87;;;;;;;0.30;100.00;98486.53;1721393;82;21009;-80
2022/12/05 00:03:48;;;;;;;57.27;26.23;;;;;;;0.32;100.00;98486.32;1742699;82;21208;-78
2022/12/05 00:06:15;;;;;;;60.43;32.17;;;;;;;0.32;100.00;98481.81;1743013;82;21454;-80
2022/12/05 00:08:42;;;;;;;53.08;30.02;;;;;;;0.35;100.00;98476.60;1742635;82;21139;-77
2022/12/05 00:11:13;;;;;;;77.22;33.20;;;;;;;0.38;100.00;98477.52;1742938;82;21050;-80
2022/12/05 00:13:39;;;;;;;82.15;37.80;;;;;;;0.37;100.00;98472.70;1742742;82;20975;-77
2022/12/05 00:16:10;;;;;;;84.17;39.10;;;;;;;0.39;100.00;98472.50;1742647;82;21042;-77
2022/12/05 00:18:36;;;;;;;81.75;38.65;;;;;;;0.42;100.00;98471.56;1742572;82;21022;-80
2022/12/05 00:21:02;;;;;;;77.47;34.05;;;;;;;0.36;100.00;98469.73;1742997;82;21773;-77
2022/12/05 00:23:27;;;;;;;81.82;38.38;;;;;;;0.34;100.00;98474.42;1742745;82;20946;-77
2022/12/05 00:25:53;;;;;;;86.85;40.78;;;;;;;0.31;100.00;98466.84;1742788;82;20945;-77
2022/12/05 00:28:19;;;;;;;83.35;37.98;;;;;;;0.32;100.00;98466.33;1743016;82;20883;-77
2022/12/05 00:30:45;;;;;;;82.88;37.95;;;;;;;0.33;100.00;98459.45;1727476;82;20968;-77
2022/12/05 00:33:11;;;;;;;79.92;36.77;;;;;;;0.36;100.00;98457.73;1713319;83;21173;-77
2022/12/05 00:35:37;;;;;;;81.05;39.00;;;;;;;0.32;100.00;98455.15;1713144;83;20966;-77
2022/12/05 00:38:03;;;;;;;77.08;35.55;;;;;;;0.33;100.00;98456.79;1713161;83;21467;-80
2022/12/05 00:40:29;;;;;;;87.82;43.75;;;;;;;0.30;100.00;98461.72;1713248;83;20934;-80
2022/12/05 00:42:54;;;;;;;89.05;45.88;;;;;;;0.29;100.00;98460.90;1713351;83;20914;-77
2022/12/05 00:45:21;;;;;;;75.37;35.28;;;;;;;0.32;100.00;98459.66;1713142;83;21028;-80
2022/12/05 00:47:46;;;;;;;70.10;35.25;;;;;;;0.28;100.00;98453.41;1679771;83;20995;-80
2022/12/05 00:50:12;;;;;;;110.05;52.43;;;;;;;0.28;100.00;98452.59;1713567;83;20973;-80
2022/12/05 00:52:38;;;;;;;84.22;38.40;;;;;;;0.30;100.00;98453.20;1713251;83;20982;-77
2022/12/05 00:55:05;;;;;;;112.22;47.67;;;;;;;0.30;100.00;98439.88;1713227;83;21033;-77
2022/12/05 00:57:31;;;;;;;99.15;47.58;;;;;;;0.33;100.00;98452.79;1713362;83;21152;-80
2022/12/05 00:59:57;;;;;;;85.40;39.80;;;;;;;0.33;100.00;98449.30;1713152;82;20978;-80
2022/12/05 01:02:23;;;;;;;89.87;42.70;;;;;;;0.32;100.00;98451.66;1738586;82;20958;-80
2022/12/05 01:04:49;;;;;;;119.15;51.70;;;;;;;0.36;100.00;98447.06;1742955;82;20855;-80
2022/12/05 01:07:15;;;;;;;119.25;57.45;;;;;;;0.34;100.00;98437.09;1743014;82;21033;-77
2022/12/05 01:09:40;;;;;;;113.97;53.85;;;;;;;0.33;100.00;98438.64;1742925;82;21225;-80
2022/12/05 01:12:07;;;;;;;101.65;46.83;;;;;;;0.34;100.00;98437.61;1742834;82;20965;-80
2022/12/05 01:14:33;;;;;;;119.50;52.85;;;;;;;0.35;100.00;98447.28;1742658;82;21006;-77
2022/12/05 01:16:59;;;;;;;93.58;45.12;;;;;;;0.33;100.00;98450.12;1742872;82;21170;-80
2022/12/05 01:19:28;;;;;;;97.85;42.95;;;;;;;0.34;100.00;98452.27;1742713;82;20895;-77
2022/12/05 01:21:54;;;;;;;;;;;;;;;0.34;100.00;98440.28;1740373;82;21549;-77
2022/12/05 01:24:20;;;;;;;104.95;44.88;;;;;;;0.31;100.00;98437.52;1742738;82;20179;-77
2022/12/05 01:26:46;;;;;;;91.37;44.53;;;;;;;0.29;100.00;98440.91;1743105;82;20911;-77
2022/12/05 01:29:14;;;;;;;96.50;45.58;;;;;;;0.27;100.00;98448.30;1742604;82;21002;-80
2022/12/05 01:31:40;;;;;;;111.52;58.35;;;;;;;0.27;100.00;98438.45;1708789;83;21022;-77
2022/12/05 01:34:09;;;;;;;111.00;59.30;;;;;;;0.27;100.00;98442.96;1712864;83;21176;-80
2022/12/05 01:36:35;;;;;;;102.15;52.93;;;;;;;0.21;100.00;98441.91;1713275;83;20987;-77
2022/12/05 01:39:01;;;;;;;110.85;53.55;;;;;;;0.16;100.00;98439.03;1713090;83;20907;-80
2022/12/05 01:41:35;;;;;;;121.92;56.37;;;;;;;0.08;100.00;98435.22;1713430;83;21521;-80
2022/12/05 01:44:15;;;;;;;117.75;55.38;;;;;;;0.01;100.00;98426.93;1713020;83;21013;-80
2022/12/05 01:46:49;;;;;;;117.50;53.98;;;;;;;-0.03;100.00;98425.98;1713430;83;21022;-80
2022/12/05 01:49:24;;;;;;;115.25;48.65;;;;;;;-0.04;100.00;98420.34;1713019;83;21053;-77
2022/12/05 01:51:53;;;;;;;115.55;52.00;;;;;;;-0.04;100.00;98417.69;1713188;83;21498;-77
2022/12/05 01:54:19;;;;;;;132.35;59.33;;;;;;;-0.06;100.00;98413.08;1713194;83;21473;-77
2022/12/05 01:56:49;;;;;;;109.22;58.23;;;;;;;-0.08;100.00;98403.14;1713356;83;21006;-77
2022/12/05 01:59:15;;;;;;;101.65;47.38;;;;;;;-0.04;100.00;98412.87;1732737;82;21153;-77
2022/12/05 02:01:41;;;;;;;99.15;47.15;;;;;;;-0.05;100.00;98402.72;1729993;82;20903;-77
2022/12/05 02:04:07;;;;;;;101.62;49.10;;;;;;;-0.09;100.00;98404.65;1742718;82;20997;-77
2022/12/05 02:06:33;;;;;;;96.60;44.50;;;;;;;-0.11;100.00;98406.70;1743019;82;20959;-77
2022/12/05 02:08:59;;;;;;;100.25;46.58;;;;;;;-0.13;100.00;98404.24;1742691;82;20950;-77
2022/12/05 02:11:27;;;;;;;112.12;50.58;;;;;;;-0.13;100.00;98403.42;1742762;82;21169;-80
2022/12/05 02:14:17;;;;;;;108.20;50.57;;;;;;;-0.15;100.00;98409.47;1742598;82;21022;-80
2022/12/05 02:17:03;;;;;;;113.65;48.95;;;;;;;-0.16;100.00;98413.98;1742990;82;21715;-81
2022/12/05 02:19:37;;;;;;;109.78;47.27;;;;;;;-0.10;100.00;98416.33;1742279;82;21607;-77
2022/12/05 02:22:35;;;;;;;113.97;52.38;;;;;;;-0.07;100.00;98409.29;1741249;82;21630;-77
2022/12/05 02:25:21;;;;;;;115.57;54.15;;;;;;;-0.10;100.00;98412.34;1742845;82;21434;-80
2022/12/05 02:28:08;;;;;;;97.42;48.38;;;;;;;-0.12;100.00;98394.41;1724044;82;21026;-77
2022/12/05 02:31:00;;;;;;;108.97;47.27;;;;;;;-0.11;100.00;98403.52;1709367;82;21085;-80
2022/12/05 02:33:37;;;;;;;99.25;44.55;;;;;;;-0.14;100.00;98402.61;1695380;83;21002;-77
2022/12/05 02:36:10;;;;;;;81.08;42.03;;;;;;;-0.15;100.00;98401.48;1713056;83;21055;-80
2022/12/05 02:38:59;;;;;;;89.87;43.58;;;;;;;-0.14;100.00;98389.80;1713265;83;21091;-80
2022/12/05 02:41:35;;;;;;;73.72;34.88;;;;;;;-0.17;100.00;98385.70;1713113;83;21078;-77
2022/12/05 02:44:06;;;;;;;77.12;39.15;;;;;;;-0.15;100.00;98388.16;1711991;83;21006;-77
2022/12/05 02:46:34;;;;;;;73.07;37.90;;;;;;;-0.11;100.00;98392.05;1712598;83;21462;-81
2022/12/05 02:49:04;;;;;;;64.43;30.90;;;;;;;-0.05;100.00;98383.25;1713284;83;21625;-80
2022/12/05 02:51:34;;;;;;;61.20;30.12;;;;;;;-0.01;100.00;98379.15;1713108;83;21077;-77
2022/12/05 02:54:03;;;;;;;56.65;29.55;;;;;;;0.02;100.00;98368.62;1713009;83;20998;-80
2022/12/05 02:56:30;;;;;;;55.78;29.32;;;;;;;0.02;100.00;98363.28;1713244;83;21038;-80
2022/12/05 02:58:56;;;;;;;54.15;29.23;;;;;;;0.06;100.00;98370.66;1685123;83;21077;-80
2022/12/05 03:01:26;;;;;;;55.10;27.30;;;;;;;0.10;100.00;98398.55;1726012;82;20982;-77
2022/12/05 03:03:52;;;;;;;;;;;;;;;0.13;100.00;98387.98;1745327;82;21459;-77
2022/12/05 03:06:28;;;;;;;50.85;25.35;;;;;;;0.17;100.00;98386.06;1742552;82;20227;-77
2022/12/05 03:09:12;;;;;;;62.83;33.67;;;;;;;0.18;100.00;98394.36;1742615;82;20990;-80
2022/12/05 03:11:41;;;;;;;60.30;30.82;;;;;;;0.19;100.00;98399.17;1742106;82;21066;-80
2022/12/05 03:14:12;;;;;;;68.75;36.65;;;;;;;0.24;100.00;98407.36;1742637;82;21003;-80
2022/12/05 03:16:45;;;;;;;61.65;35.75;;;;;;;0.26;100.00;98404.82;1742701;82;21035;-77
2022/12/05 03:19:18;;;;;;;52.90;26.95;;;;;;;0.30;100.00;98405.73;1742595;82;21015;-77
2022/12/05 03:21:56;;;;;;;51.80;27.35;;;;;;;0.32;100.00;98402.34;1737851;82;21014;-77
2022/12/05 03:24:22;;;;;;;48.25;26.60;;;;;;;0.28;100.00;98405.95;1742746;82;21432;-80
2022/12/05 03:27:08;;;;;;;55.75;29.27;;;;;;;0.25;100.00;98420.48;1742599;82;20911;-77
2022/12/05 03:29:56;;;;;;;70.17;33.02;;;;;;;0.27;100.00;98418.45;1741892;82;21012;-77
2022/12/05 03:32:44;;;;;;;64.47;33.40;;;;;;;0.31;100.00;98420.19;1713185;83;21066;-77
2022/12/05 03:35:42;;;;;;;74.25;38.38;;;;;;;0.24;100.00;98421.51;1713250;83;21006;-80
2022/12/05 03:38:32;;;;;;;87.22;44.15;;;;;;;0.25;100.00;98428.48;1713422;83;21093;-80
2022/12/05 03:41:21;;;;;;;73.60;40.20;;;;;;;0.28;100.00;98428.09;1708083;83;21026;-77
2022/12/05 03:44:13;;;;;;;67.17;35.33;;;;;;;0.27;100.00;98423.78;1712997;83;21777;-77
2022/12/05 03:47:02;;;;;;;72.97;35.98;;;;;;;0.24;100.00;98420.69;1694990;83;21061;-77
2022/12/05 03:49:42;;;;;;;68.52;37.90;;;;;;;0.26;100.00;98426.66;1713002;83;21058;-78
2022/12/05 03:52:29;;;;;;;85.90;42.80;;;;;;;0.25;100.00;98428.98;1712181;83;21025;-77
2022/12/05 03:54:58;;;;;;;69.90;37.50;;;;;;;0.24;100.00;98432.17;1713203;83;21032;-77
2022/12/05 03:57:31;;;;;;;;;;;;;;;0.23;100.00;98421.20;1715746;83;21076;-80
2022/12/05 04:00:09;;;;;;;87.08;43.90;;;;;;;0.27;100.00;98410.45;1712932;83;20162;-77
2022/12/05 04:02:50;;;;;;;87.22;40.45;;;;;;;0.29;100.00;98415.58;1738934;82;21026;-80
2022/12/05 04:05:23;;;;;;;81.05;40.03;;;;;;;0.29;100.00;98419.58;1742904;82;21018;-76
2022/12/05 04:07:56;;;;;;;78.25;40.25;;;;;;;0.25;100.00;98418.33;1742820;82;21042;-77
2022/12/05 04:10:26;;;;;;;81.92;40.23;;;;;;;0.20;100.00;98416.80;1742817;82;21997;-77
2022/12/05 04:12:54;;;;;;;85.90;46.63;;;;;;;0.17;100.00;98413.20;1742812;82;20984;-80
2022/12/05 04:17:01;;;;;;;88.30;45.90;;;;;;;0.18;100.00;98417.53;1742986;82;21006;-78
2022/12/05 04:17:58;;;;;;;76.87;41.42;;;;;;;0.22;100.00;98408.09;1734376;82;21010;-77
2022/12/05 04:23:16;;;;;;;63.63;33.33;;;;;;;0.21;100.00;98419.77;1742844;82;21103;-77
2022/12/05 04:26:04;;;;;;;60.75;30.97;;;;;;;0.21;100.00;98413.93;1742778;82;20867;-80
2022/12/05 04:28:47;;;;;;;55.17;30.77;;;;;;;0.22;100.00;98413.41;1743009;82;21003;-80
2022/12/05 04:31:23;;;;;;;73.87;39.08;;;;;;;0.20;100.00;98414.14;1720789;82;21061;-78
2022/12/05 04:33:55;;;;;;;73.75;42.70;;;;;;;0.25;100.00;98419.15;1713019;83;21101;-80
2022/12/05 04:36:33;;;;;;;89.60;45.88;;;;;;;0.24;100.00;98403.36;1713000;83;21490;-77
2022/12/05 04:39:08;;;;;;;96.00;48.33;;;;;;;0.24;100.00;98411.36;1712926;83;21478;-80
2022/12/05 04:41:57;;;;;;;107.97;55.30;;;;;;;0.23;100.00;98398.55;1712950;83;21026;-80
2022/12/05 04:44:27;;;;;;;118.25;59.60;;;;;;;0.24;100.00;98393.52;1713208;83;21002;-80
2022/12/05 04:46:53;;;;;;;111.08;59.75;;;;;;;0.21;100.00;98393.94;1713050;83;21037;-77
2022/12/05 04:49:23;;;;;;;110.72;54.65;;;;;;;0.23;100.00;98397.21;1668790;83;21152;-77
2022/12/05 04:51:51;;;;;;;108.17;54.42;;;;;;;0.28;100.00;98399.28;1713020;83;21077;-80
2022/12/05 04:54:25;;;;;;;101.80;53.63;;;;;;;0.27;100.00;98393.64;1713113;83;21014;-80
2022/12/05 04:56:54;;;;;;;113.97;62.73;;;;;;;0.27;100.00;98393.64;1713025;83;21025;-80
2022/12/05 04:59:20;;;;;;;119.47;62.13;;;;;;;0.27;100.00;98385.65;1713403;83;21007;-80
2022/12/05 05:01:54;;;;;;;122.40;64.05;;;;;;;0.27;100.00;98382.47;1730891;82;21310;-80
2022/12/05 05:04:28;;;;;;;176.05;78.25;;;;;;;0.24;100.00;98388.70;1742752;82;21066;-77
2022/12/05 05:06:54;;;;;;;131.15;66.90;;;;;;;0.24;100.00;98387.38;1742799;82;21034;-80
2022/12/05 05:09:20;;;;;;;123.90;59.20;;;;;;;0.28;100.00;98387.28;1742718;82;20997;-77
2022/12/05 05:11:45;;;;;;;108.75;53.55;;;;;;;0.30;100.00;98398.55;1742783;82;20883;-77
2022/12/05 05:14:11;;;;;;;98.35;49.67;;;;;;;0.32;100.00;98397.83;1742787;82;21173;-80
2022/12/05 05:16:39;;;;;;;96.45;52.90;;;;;;;0.31;100.00;98396.70;1742859;82;20864;-77
2022/12/05 05:19:06;;;;;;;92.93;50.57;;;;;;;0.31;100.00;98392.20;1742901;82;21053;-77
2022/12/05 05:21:34;;;;;;;92.25;51.20;;;;;;;0.27;100.00;98392.31;1742753;82;21447;-77
2022/12/05 05:24:01;;;;;;;101.62;55.50;;;;;;;0.25;100.00;98396.49;1742923;82;21600;-80
2022/12/05 05:26:28;;;;;;;104.27;57.25;;;;;;;0.26;100.00;98385.34;1742882;82;21113;-80
2022/12/05 05:28:54;;;;;;;98.70;55.23;;;;;;;0.26;100.00;98386.68;1737855;82;21030;-77
2022/12/05 05:31:20;;;;;;;93.37;48.83;;;;;;;0.25;100.00;98380.50;1720589;82;20986;-80
2022/12/05 05:33:52;;;;;;;103.78;58.30;;;;;;;0.25;100.00;98384.49;1713201;83;21005;-77
2022/12/05 05:36:19;;;;;;;131.35;71.37;;;;;;;0.22;100.00;98382.25;1713008;83;21369;-77
2022/12/05 05:38:49;;;;;;;129.72;72.12;;;;;;;0.20;100.00;98386.97;1713227;83;21854;-80
2022/12/05 05:41:22;;;;;;;122.60;65.80;;;;;;;0.15;100.00;98383.27;1713140;83;21078;-80
2022/12/05 05:43:48;;;;;;;119.08;57.13;;;;;;;0.10;100.00;98375.08;1713039;83;21038;-77
2022/12/05 05:46:14;;;;;;;118.02;62.60;;;;;;;0.08;100.00;98385.10;1713290;83;20906;-80
2022/12/05 05:48:40;;;;;;;98.95;56.18;;;;;;;0.05;100.00;98381.52;1713182;83;21097;-77
2022/12/05 05:51:07;;;;;;;121.25;63.85;;;;;;;0.05;100.00;98391.66;1713232;83;21166;-77
2022/12/05 05:53:33;;;;;;;139.62;71.55;;;;;;;0.08;100.00;98381.10;1713246;83;20998;-80
2022/12/05 05:56:12;;;;;;;119.00;65.67;;;;;;;0.11;100.00;98374.88;1713072;83;21660;-77
2022/12/05 05:58:38;;;;;;;124.00;66.22;;;;;;;0.13;100.00;98386.66;1713353;83;28155;-80
2022/12/05 06:01:11;;;;;;;118.05;62.00;;;;;;;0.13;100.00;98394.14;1693808;82;20879;-80
2022/12/05 06:03:37;;;;;;;143.52;75.85;;;;;;;0.15;100.00;98384.09;1742733;82;21139;-77
2022/12/05 06:06:06;;;;;;;131.85;67.00;;;;;;;0.15;100.00;98388.08;1730357;82;21604;-77
2022/12/05 06:08:33;;;;;;;121.20;65.85;;;;;;;0.15;100.00;98399.26;1737698;80;21018;-80
2022/12/05 06:11:01;;;;;;;121.33;60.98;;;;;;;0.16;100.00;98397.72;1733740;82;21056;-80
2022/12/05 06:13:27;;;;;;;121.07;65.37;;;;;;;0.17;100.00;98397.20;1693351;82;20954;-80
2022/12/05 06:15:53;;;;;;;137.18;72.90;;;;;;;0.13;100.00;98390.14;1716035;82;21942;-80
2022/12/05 06:18:19;;;;;;;139.68;76.70;;;;;;;0.10;100.00;98391.07;1697938;84;20847;-77
2022/12/05 06:20:53;;;;;;;132.15;74.37;;;;;;;0.11;100.00;98390.86;1698317;84;20930;-77
2022/12/05 06:23:19;;;;;;;126.42;72.55;;;;;;;0.12;100.00;98397.02;1701481;83;21508;-77
2022/12/05 06:25:49;;;;;;;118.05;66.17;;;;;;;0.14;100.00;98389.62;1710416;83;21112;-77
2022/12/05 06:28:16;;;;;;;116.85;64.05;;;;;;;0.13;100.00;98393.31;1727992;83;21168;-77
2022/12/05 06:30:42;;;;;;;111.85;62.60;;;;;;;0.13;100.00;98386.66;1728742;81;20981;-80
2022/12/05 06:33:08;;;;;;;106.60;55.03;;;;;;;0.08;100.00;98384.59;1703251;83;20959;-77
2022/12/05 06:35:34;;;;;;;77.78;43.00;;;;;;;0.06;100.00;98379.16;1700997;84;21027;-80
2022/12/05 06:38:00;;;;;;;86.97;43.20;;;;;;;0.06;100.00;98391.97;1700920;84;20987;-77
2022/12/05 06:40:25;;;;;;;83.65;42.62;;;;;;;0.07;100.00;98384.80;1737357;81;21164;-77
2022/12/05 06:42:51;;;;;;;74.60;39.35;;;;;;;0.02;100.00;98385.94;1726906;82;20988;-80
2022/12/05 06:45:17;;;;;;;84.52;43.08;;;;;;;0.04;100.00;98390.55;1725938;81;20905;-80
2022/12/05 06:47:43;;;;;;;80.03;40.65;;;;;;;0.03;100.00;98382.24;1766130;80;20898;-77
2022/12/05 06:50:09;;;;;;;92.15;46.20;;;;;;;0.03;100.00;98380.91;1744819;80;20976;-77
2022/12/05 06:52:35;;;;;;;111.97;52.27;;;;;;;0.07;100.00;98384.80;1741238;82;21118;-77
2022/12/05 06:55:01;;;;;;;115.28;53.63;;;;;;;0.13;100.00;98377.33;1709497;83;20886;-80
2022/12/05 06:57:27;;;;;;;94.55;52.35;;;;;;;0.20;100.00;98380.82;1721991;81;20957;-80
2022/12/05 07:01:37;;;;;;;83.58;44.80;;;;;;;0.27;100.00;98369.66;1727985;81;21186;-80
2022/12/05 07:02:21;;;;;;;90.45;45.45;;;;;;;0.32;100.00;98367.69;1720822;81;21082;-80
2022/12/05 07:04:47;;;;;;;83.85;44.18;;;;;;;0.36;100.00;98361.75;1733038;81;21355;-81
2022/12/05 07:07:13;;;;;;;70.42;37.25;;;;;;;0.44;100.00;98370.06;1740602;81;21576;-77
2022/12/05 07:09:44;;;;;;;65.52;38.00;;;;;;;0.45;100.00;98358.36;1688705;82;21396;-77
2022/12/05 07:12:13;;;;;;;55.98;33.90;;;;;;;0.53;100.00;98355.48;1713456;83;21024;-77
2022/12/05 07:14:39;;;;;;;59.98;34.75;;;;;;;0.61;100.00;98353.13;1715030;82;21433;-80
2022/12/05 07:17:05;;;;;;;72.75;37.65;;;;;;;0.62;100.00;98354.23;1715742;81;21169;-80
2022/12/05 07:19:31;;;;;;;80.53;42.15;;;;;;;0.68;100.00;98356.05;1711969;82;20900;-77
2022/12/05 07:21:57;;;;;;;108.07;52.45;;;;;;;0.64;100.00;98349.52;1721925;81;20944;-77
2022/12/05 07:24:23;;;;;;;198.07;96.42;;;;;;;0.68;100.00;98359.23;1710745;81;20900;-77
2022/12/05 07:26:49;;;;;;;102.38;56.35;;;;;;;0.68;100.00;98352.57;1712036;82;20904;-77
2022/12/05 07:29:14;;;;;;;254.10;175.45;;;;;;;0.70;100.00;98355.36;1711095;81;21694;-80
2022/12/05 07:31:40;;;;;;;149.60;94.75;;;;;;;0.74;100.00;98361.08;1717410;81;20900;-77
2022/12/05 07:34:06;;;;;;;104.63;60.23;;;;;;;0.84;100.00;98364.13;1719418;81;21051;-80
2022/12/05 07:36:32;;;;;;;86.67;48.23;;;;;;;0.90;100.00;98361.16;1716790;83;21339;-77
2022/12/05 07:38:58;;;;;;;81.40;48.85;;;;;;;0.99;100.00;98364.72;1705214;82;21102;-80
2022/12/05 07:41:27;;;;;;;110.10;68.40;;;;;;;1.05;100.00;98370.56;1706471;81;21101;-77
2022/12/05 07:43:54;;;;;;;99.62;55.25;;;;;;;1.13;100.00;98378.85;1715217;82;25983;-77
2022/12/05 07:46:20;;;;;;;107.97;57.88;;;;;;;1.16;100.00;98359.73;1695353;82;21140;-80
2022/12/05 07:48:47;;;;;;;119.42;68.40;;;;;;;1.24;100.00;98370.70;1715063;82;20997;-77
2022/12/05 07:51:13;;;;;;;127.07;72.22;;;;;;;1.32;100.00;98368.61;1701913;82;21127;-78
2022/12/05 07:53:40;;;;;;;121.10;69.15;;;;;;;1.40;100.00;98371.56;1694047;82;21033;-77
2022/12/05 07:56:07;;;;;;;144.02;82.08;;;;;;;1.52;100.00;98369.03;1700422;82;21527;-77
2022/12/05 07:58:33;;;;;;;173.07;87.97;;;;;;;1.60;100.00;98364.26;1696615;83;21441;-77
2022/12/05 08:01:11;;;;;;;211.32;116.55;;;;;;;1.74;100.00;98361.52;1702269;82;21296;-77
2022/12/05 08:03:37;;;;;;;324.65;157.25;;;;;;;1.89;100.00;98372.23;1714960;82;21487;-80
2022/12/05 08:06:07;;;;;;;234.72;121.90;;;;;;;1.99;100.00;98369.08;1702168;81;21091;-77
2022/12/05 08:08:32;;;;;;;191.47;103.38;;;;;;;2.08;100.00;98360.27;1685047;83;21075;-80
2022/12/05 08:11:10;;;;;;;174.47;96.87;;;;;;;2.13;100.00;98359.09;1707303;82;20942;-80
2022/12/05 08:13:36;;;;;;;195.97;109.12;;;;;;;2.17;100.00;98369.15;1714542;82;21110;-81
2022/12/05 08:16:03;;;;;;;146.47;77.30;;;;;;;2.24;100.00;98373.12;1704041;82;20988;-77
2022/12/05 08:18:29;;;;;;;136.18;82.25;;;;;;;2.28;100.00;98371.63;1717426;81;21149;-81
2022/12/05 08:21:09;;;;;;;144.07;79.25;;;;;;;2.31;100.00;98362.34;1727949;81;20914;-77
2022/12/05 08:23:35;;;;;;;152.20;72.55;;;;;;;2.34;100.00;98366.75;1715561;82;21580;-77
2022/12/05 08:26:08;;;;;;;164.00;83.07;;;;;;;2.35;100.00;98363.56;1735605;81;20995;-78
2022/12/05 08:28:33;;;;;;;140.15;69.55;;;;;;;2.39;100.00;98365.56;1716907;81;21069;-80
2022/12/05 08:31:08;;;;;;;149.72;74.75;;;;;;;2.42;100.00;98365.66;1720268;81;21142;-77
2022/12/05 08:33:34;;;;;;;200.90;102.75;;;;;;;2.40;100.00;98359.72;1718845;82;21073;-78
2022/12/05 08:36:02;;;;;;;161.70;85.15;;;;;;;2.48;100.00;98362.13;1718978;82;20946;-77
2022/12/05 08:38:28;;;;;;;175.47;98.67;;;;;;;2.50;100.00;98364.88;1718167;81;21030;-80
2022/12/05 08:40:53;;;;;;;185.05;102.80;;;;;;;2.47;100.00;98360.46;1719527;81;21148;-80
2022/12/05 08:43:19;;;;;;;114.40;68.40;;;;;;;2.48;100.00;98361.61;1710639;81;21073;-81
2022/12/05 08:45:50;;;;;;;123.53;69.32;;;;;;;2.46;100.00;98364.99;1723812;81;21676;-80
2022/12/05 08:48:16;;;;;;;136.10;77.27;;;;;;;2.46;100.00;98364.99;1719920;80;21116;-77
2022/12/05 08:50:42;;;;;;;128.47;68.10;;;;;;;2.49;100.00;98362.42;1721300;81;20950;-77
2022/12/05 08:53:08;;;;;;;92.60;50.45;;;;;;;2.50;100.00;98360.05;1721049;81;21509;-77
2022/12/05 08:55:34;;;;;;;76.97;45.90;;;;;;;2.50;100.00;98358.70;1722587;81;21615;-80
2022/12/05 08:58:00;;;;;;;74.53;39.30;;;;;;;2.49;100.00;98369.92;1722761;81;21023;-77
2022/12/05 09:00:26;;;;;;;74.03;40.90;;;;;;;2.51;100.00;98371.04;1720368;80;20882;-77
2022/12/05 09:02:52;;;;;;;66.30;39.95;;;;;;;2.50;100.00;98368.88;1727491;82;21497;-78
2022/12/05 09:05:18;;;;;;;92.05;55.98;;;;;;;2.47;100.00;98363.13;1720471;80;21089;-77
2022/12/05 09:07:44;;;;;;;66.70;39.13;;;;;;;2.51;100.00;98356.33;1718710;81;21153;-78
2022/12/05 09:10:10;;;;;;;80.67;45.50;;;;;;;2.53;100.00;98356.92;1718835;80;20875;-80
2022/12/05 09:12:37;;;;;;;75.83;45.08;;;;;;;2.64;100.00;98352.69;1720988;81;20981;-77
2022/12/05 09:15:05;;;;;;;69.70;39.80;;;;;;;2.67;100.00;98354.42;1720292;81;20986;-80
2022/12/05 09:17:31;;;;;;;65.10;36.90;;;;;;;2.74;100.00;98356.52;1693579;81;21640;-80
2022/12/05 09:19:57;;;;;;;62.43;36.33;;;;;;;2.74;100.00;98353.03;1719368;81;21141;-80
2022/12/05 09:22:23;;;;;;;74.40;40.38;;;;;;;2.74;100.00;98351.69;1730831;80;21197;-77
2022/12/05 09:24:49;;;;;;;67.70;38.17;;;;;;;2.75;100.00;98353.33;1734968;81;20881;-77
2022/12/05 09:27:15;;;;;;;62.73;35.95;;;;;;;2.81;100.00;98358.59;1709752;81;20880;-80
2022/12/05 09:29:41;;;;;;;65.85;35.60;;;;;;;2.83;100.00;98357.05;1715063;81;20992;-77
2022/12/05 09:32:08;;;;;;;57.83;34.27;;;;;;;2.76;100.00;98356.30;1711979;81;21830;-80
2022/12/05 09:34:36;;;;;;;51.77;29.60;;;;;;;2.81;100.00;98345.73;1719622;81;21003;-77
2022/12/05 09:37:04;;;;;;;59.67;32.70;;;;;;;2.84;100.00;98352.00;1702029;83;21039;-80
2022/12/05 09:39:30;;;;;;;59.80;31.23;;;;;;;2.88;100.00;98354.52;1713940;83;21039;-77
2022/12/05 09:42:23;;;;;;;56.98;30.48;;;;;;;2.89;100.00;98349.97;1708274;83;20988;-80
2022/12/05 09:45:23;;;;;;;59.95;31.75;;;;;;;2.84;100.00;98341.29;1708223;81;21912;-77
2022/12/05 09:47:56;;;;;;;69.42;37.42;;;;;;;2.81;100.00;98340.37;1718334;83;21016;-80
2022/12/05 09:50:44;;;;;;;100.27;49.85;;;;;;;2.77;100.00;98325.81;1708532;81;21031;-77
2022/12/05 09:53:26;;;;;;;83.80;43.75;;;;;;;2.74;100.00;98320.92;1715298;83;21011;-77
2022/12/05 09:56:15;;;;;;;79.20;46.02;;;;;;;2.79;100.00;98322.39;1708326;81;21023;-80
2022/12/05 09:58:51;;;;;;;73.85;39.73;;;;;;;2.81;100.00;98315.77;1710219;81;24863;-80
2022/12/05 10:01:42;;;;;;;59.25;31.77;;;;;;;2.83;100.00;98316.91;1720911;81;21579;-80
2022/12/05 10:04:54;;;;;;;68.22;35.98;;;;;;;2.84;100.00;98318.54;1710251;82;21471;-77
2022/12/05 10:07:34;;;;;;;63.28;35.28;;;;;;;2.88;100.00;98318.90;1694477;82;21142;-80
2022/12/05 10:10:09;;;;;;;67.30;35.33;;;;;;;2.93;100.00;98324.41;1677572;82;21609;-80
2022/12/05 10:12:53;;;;;;;57.38;31.12;;;;;;;2.92;100.00;98314.75;1717894;82;21728;-77
2022/12/05 10:15:40;;;;;;;55.92;29.42;;;;;;;2.93;100.00;98302.48;1726369;80;21075;-80
2022/12/05 10:18:37;;;;;;;48.85;26.60;;;;;;;3.01;100.00;98309.39;1695218;82;21132;-80
2022/12/05 10:21:24;;;;;;;49.93;26.15;;;;;;;3.06;100.00;98306.32;1730312;81;21060;-77
2022/12/05 10:24:14;;;;;;;51.68;27.22;;;;;;;3.09;100.00;98303.73;1713428;81;21037;-77
2022/12/05 10:26:49;;;;;;;53.45;26.45;;;;;;;3.10;100.00;98306.19;1714061;82;21253;-80
2022/12/05 10:29:32;;;;;;;50.55;25.30;;;;;;;3.04;100.00;98304.39;1707174;82;21067;-77
2022/12/05 10:32:20;;;;;;;46.08;25.82;;;;;;;3.09;100.00;98292.50;1697298;82;21095;-77
2022/12/05 10:34:46;;;;;;;44.60;23.85;;;;;;;3.11;100.00;98290.41;1720537;82;21114;-81
2022/12/05 10:37:21;;;;;;;57.35;30.52;;;;;;;3.17;100.00;98294.06;1711536;83;20932;-77
2022/12/05 10:39:48;;;;;;;57.43;30.20;;;;;;;3.22;100.00;98284.81;1707169;81;21615;-77
2022/12/05 10:42:25;;;;;;;50.28;26.52;;;;;;;3.29;100.00;98290.91;1722929;81;21877;-77
2022/12/05 10:45:01;;;;;;;47.08;25.48;;;;;;;3.40;100.00;98300.03;1730282;81;21055;-77
2022/12/05 10:47:28;;;;;;;50.23;25.75;;;;;;;3.50;100.00;98292.25;1690879;82;21409;-78
2022/12/05 10:49:55;;;;;;;49.77;28.40;;;;;;;3.59;100.00;98278.86;1710451;82;21124;-77
2022/12/05 10:52:21;;;;;;;45.63;26.77;;;;;;;3.68;100.00;98288.20;1692347;83;21139;-81
2022/12/05 10:54:52;;;;;;;48.70;27.82;;;;;;;3.82;100.00;98287.99;1690618;82;20862;-77
2022/12/05 10:57:24;;;;;;;54.05;29.40;;;;;;;3.90;100.00;98287.66;1703994;83;20980;-81
2022/12/05 10:59:50;;;;;;;49.60;28.60;;;;;;;3.99;100.00;98286.80;1678989;82;21449;-81
2022/12/05 11:02:29;;;;;;;50.33;31.00;;;;;;;4.04;100.00;98266.30;1715935;82;21158;-81
2022/12/05 11:04:55;;;;;;;51.42;30.00;;;;;;;4.15;100.00;98268.17;1703166;82;21183;-81
2022/12/05 11:07:38;;;;;;;50.88;28.42;;;;;;;4.25;100.00;98261.70;1692622;82;21048;-80
2022/12/05 11:10:31;;;;;;;46.65;28.27;;;;;;;4.38;100.00;98264.69;1692815;82;21057;-77
2022/12/05 11:12:58;;;;;;;51.08;28.23;;;;;;;4.47;100.00;98262.47;1687072;82;21099;-80
2022/12/05 11:15:26;;;;;;;50.58;27.67;;;;;;;4.55;100.00;98254.59;1709496;82;20988;-81
2022/12/05 11:17:54;;;;;;;47.25;27.10;;;;;;;4.63;100.00;98256.39;1699962;82;21292;-81
2022/12/05 11:20:26;;;;;;;69.75;34.55;;;;;;;4.73;100.00;98245.05;1695560;82;21024;-81
2022/12/05 11:22:53;;;;;;;61.18;32.90;;;;;;;4.86;100.00;98246.11;1700372;82;21022;-81
2022/12/05 11:25:32;;;;;;;46.60;25.75;;;;;;;5.00;100.00;98251.52;1694819;82;21024;-81
2022/12/05 11:28:00;;;;;;;;;;;;;;;5.12;100.00;98247.97;1706386;82;21514;-78
2022/12/05 11:30:27;;;;;;;40.90;25.27;;;;;;;5.21;100.00;98247.37;1683053;82;21211;-81
2022/12/05 11:33:21;;;;;;;44.00;24.82;;;;;;;5.30;100.00;98248.63;1688446;83;21063;-81
2022/12/05 11:35:48;;;;;;;43.02;25.02;;;;;;;5.41;100.00;98238.06;1699884;83;21082;-77